Time;durP1;ratioP1;P1;durP2;ratioP2;P2;SDS_P1;SDS_P2;PMS_P1;PMS_P2;Temp;Humidity;BMP_temperature;BMP_pressure;BME280_temperature;BME280_humidity;BME280_pressure;Samples;Min_cycle;Max_cycle;Signal;HPM_P1;HPM_P2
2022/07/02 00:02:08;;;;;;;2.97;2.60;;;;;;;;;;5087060;28;20274;-48
2022/07/02 00:04:34;;;;;;;2.53;2.37;;;;;;;;;;5078839;28;20180;-49
2022/07/02 00:07:01;;;;;;;2.53;2.43;;;;;;;;;;5067012;28;20157;-49
2022/07/02 00:09:27;;;;;;;2.63;2.43;;;;;;;;;;5068604;28;20258;-48
2022/07/02 00:11:57;;;;;;;2.70;2.50;;;;;;;;;;5068321;28;20161;-48
2022/07/02 00:14:23;;;;;;;2.90;2.30;;;;;;;;;;5068569;28;20579;-48
2022/07/02 00:16:49;;;;;;;3.63;2.47;;;;;;;;;;5068311;28;20615;-48
2022/07/02 00:19:15;;;;;;;2.93;2.60;;;;;;;;;;5067493;28;20543;-48
2022/07/02 00:21:42;;;;;;;2.67;2.30;;;;;;;;;;5065683;28;20165;-48
2022/07/02 00:24:08;;;;;;;3.47;2.83;;;;;;;;;;5067543;28;20180;-49
2022/07/02 00:26:38;;;;;;;2.40;2.20;;;;;;;;;;5067989;28;20505;-48
2022/07/02 00:29:25;;;;;;;3.40;2.57;;;;;;;;;;5067993;28;20643;-48
2022/07/02 00:31:51;;;;;;;2.83;2.40;;;;;;;;;;5054132;28;20264;-48
2022/07/02 00:34:18;;;;;;;6.90;3.17;;;;;;;;;;5068131;28;21073;-48
2022/07/02 00:36:45;;;;;;;2.80;2.60;;;;;;;;;;5065162;28;20573;-48
2022/07/02 00:39:11;;;;;;;2.70;2.47;;;;;;;;;;5067687;28;20165;-48
2022/07/02 00:41:37;;;;;;;2.67;2.47;;;;;;;;;;5068033;28;20586;-48
2022/07/02 00:44:06;;;;;;;4.70;2.90;;;;;;;;;;5087338;28;20563;-48
2022/07/02 00:46:33;;;;;;;3.87;2.40;;;;;;;;;;5088549;28;20695;-48
2022/07/02 00:49:00;;;;;;;2.27;2.07;;;;;;;;;;5087472;28;20196;-48
2022/07/02 00:51:26;;;;;;;2.43;2.23;;;;;;;;;;5086939;28;20195;-49
2022/07/02 00:53:52;;;;;;;4.37;2.60;;;;;;;;;;5075729;28;20579;-48
2022/07/02 00:56:18;;;;;;;2.83;2.50;;;;;;;;;;5066938;28;20271;-48
2022/07/02 00:58:44;;;;;;;2.87;2.57;;;;;;;;;;5066935;28;20503;-48
2022/07/02 01:01:10;;;;;;;4.07;2.80;;;;;;;;;;5066800;28;20182;-49
2022/07/02 01:03:38;;;;;;;2.53;2.33;;;;;;;;;;5066872;28;20369;-48
2022/07/02 01:06:04;;;;;;;3.53;2.80;;;;;;;;;;5066958;28;20180;-49
2022/07/02 01:11:17;;;;;;;3.17;2.73;;;;;;;;;;5066380;28;20246;-48
2022/07/02 01:13:44;;;;;;;2.73;2.43;;;;;;;;;;5065427;28;20176;-48
2022/07/02 01:16:10;;;;;;;3.27;2.70;;;;;;;;;;5066255;28;20184;-49
2022/07/02 01:18:37;;;;;;;3.53;2.43;;;;;;;;;;5066426;28;20175;-48
2022/07/02 01:21:04;;;;;;;2.77;2.57;;;;;;;;;;5066440;28;20613;-48
2022/07/02 01:23:30;;;;;;;3.30;3.00;;;;;;;;;;5065620;28;20164;-49
2022/07/02 01:26:02;;;;;;;2.83;2.63;;;;;;;;;;5054356;28;20292;-47
2022/07/02 01:28:28;;;;;;;2.53;2.33;;;;;;;;;;5046549;28;20197;-48
2022/07/02 01:30:54;;;;;;;3.93;2.50;;;;;;;;;;5062879;28;20533;-48
2022/07/02 01:33:20;;;;;;;4.60;2.80;;;;;;;;;;5066420;28;20169;-48
2022/07/02 01:35:46;;;;;;;3.20;2.90;;;;;;;;;;5065816;28;20237;-48
2022/07/02 01:38:13;;;;;;;2.97;2.60;;;;;;;;;;5065375;28;20490;-48
2022/07/02 01:40:39;;;;;;;2.87;2.67;;;;;;;;;;5066456;28;20522;-48
2022/07/02 01:43:05;;;;;;;4.60;2.87;;;;;;;;;;5066286;28;20157;-48
2022/07/02 01:45:31;;;;;;;4.87;3.03;;;;;;;;;;5066528;28;20666;-48
2022/07/02 01:47:57;;;;;;;3.07;2.87;;;;;;;;;;5066867;28;20228;-48
2022/07/02 01:50:23;;;;;;;2.87;2.67;;;;;;;;;;5089922;28;20205;-47
2022/07/02 01:52:51;;;;;;;2.70;2.50;;;;;;;;;;5106583;28;20700;-49
2022/07/02 01:55:17;;;;;;;2.43;2.30;;;;;;;;;;5106783;28;20635;-47
2022/07/02 01:57:43;;;;;;;4.50;2.67;;;;;;;;;;5107731;28;20495;-47
2022/07/02 02:00:10;;;;;;;2.70;2.50;;;;;;;;;;5106185;28;20179;-47
2022/07/02 02:02:36;;;;;;;2.87;2.23;;;;;;;;;;5107242;28;20653;-48
2022/07/02 02:05:02;;;;;;;2.97;2.67;;;;;;;;;;5106502;28;20560;-47
2022/07/02 02:07:29;;;;;;;2.70;2.33;;;;;;;;;;5105947;28;20222;-47
2022/07/02 02:09:55;;;;;;;2.77;2.53;;;;;;;;;;5098110;28;20258;-47
2022/07/02 02:12:21;;;;;;;2.40;2.20;;;;;;;;;;5086709;28;20673;-48
2022/07/02 02:14:47;;;;;;;4.77;2.80;;;;;;;;;;5093418;28;20171;-48
2022/07/02 02:17:13;;;;;;;2.37;2.17;;;;;;;;;;5107275;28;20497;-47
2022/07/02 02:19:40;;;;;;;2.80;2.57;;;;;;;;;;5106807;28;20168;-48
2022/07/02 02:22:06;;;;;;;2.80;2.60;;;;;;;;;;5105605;28;20160;-47
2022/07/02 02:24:38;;;;;;;2.70;2.50;;;;;;;;;;5106812;28;20176;-47
2022/07/02 02:27:05;;;;;;;2.90;2.60;;;;;;;;;;5106774;28;20174;-48
2022/07/02 02:29:31;;;;;;;3.83;2.93;;;;;;;;;;5106425;28;20224;-48
2022/07/02 02:31:57;;;;;;;3.70;2.60;;;;;;;;;;5106696;28;20155;-47
2022/07/02 02:34:23;;;;;;;3.00;2.60;;;;;;;;;;5106305;28;20212;-47
2022/07/02 02:36:49;;;;;;;4.30;2.60;;;;;;;;;;5105549;28;20638;-48
2022/07/02 02:39:15;;;;;;;2.73;2.53;;;;;;;;;;5104563;28;20622;-48
2022/07/02 02:41:41;;;;;;;2.30;2.10;;;;;;;;;;5087210;28;20460;-47
2022/07/02 02:44:07;;;;;;;3.27;2.77;;;;;;;;;;5088104;28;20230;-48
2022/07/02 02:46:33;;;;;;;2.90;2.70;;;;;;;;;;5089969;28;20227;-47
2022/07/02 02:48:59;;;;;;;3.27;2.97;;;;;;;;;;5090094;28;20712;-48
2022/07/02 02:51:25;;;;;;;4.47;4.10;;;;;;;;;;5069683;28;20730;-49
2022/07/02 02:53:51;;;;;;;5.37;2.93;;;;;;;;;;5059076;28;20169;-48
2022/07/02 02:56:17;;;;;;;2.80;2.60;;;;;;;;;;5069181;28;20182;-48
2022/07/02 02:58:43;;;;;;;4.43;3.00;;;;;;;;;;5070779;28;20598;-47
2022/07/02 03:01:10;;;;;;;5.20;4.80;;;;;;;;;;5069842;28;20636;-48
2022/07/02 03:03:36;;;;;;;3.50;2.53;;;;;;;;;;5070281;28;20186;-48
2022/07/02 03:06:02;;;;;;;4.90;3.07;;;;;;;;;;5070067;28;20208;-48
2022/07/02 03:08:28;;;;;;;3.03;2.77;;;;;;;;;;5069234;28;20509;-48
2022/07/02 03:10:54;;;;;;;3.07;2.73;;;;;;;;;;5070159;28;20169;-48
2022/07/02 03:13:20;;;;;;;3.77;2.60;;;;;;;;;;5069725;28;20177;-48
2022/07/02 03:15:46;;;;;;;3.73;3.00;;;;;;;;;;5069757;28;20657;-49
2022/07/02 03:18:12;;;;;;;5.57;4.73;;;;;;;;;;5070040;28;20192;-48
2022/07/02 03:20:38;;;;;;;2.80;2.60;;;;;;;;;;5069862;28;20176;-46
2022/07/02 03:23:04;;;;;;;3.63;2.70;;;;;;;;;;5068680;28;20168;-49
2022/07/02 03:25:30;;;;;;;3.50;2.40;;;;;;;;;;5069557;28;20631;-47
2022/07/02 03:27:56;;;;;;;5.03;2.80;;;;;;;;;;5069799;28;20192;-48
2022/07/02 03:30:22;;;;;;;3.73;2.60;;;;;;;;;;5069443;28;20169;-47
2022/07/02 03:32:48;;;;;;;3.43;2.60;;;;;;;;;;5069610;28;20177;-48
2022/07/02 03:35:14;;;;;;;3.77;3.40;;;;;;;;;;5069301;28;20176;-48
2022/07/02 03:37:41;;;;;;;3.30;3.00;;;;;;;;;;5068442;28;20165;-48
2022/07/02 03:40:07;;;;;;;4.37;3.97;;;;;;;;;;5068004;28;20192;-48
2022/07/02 03:42:33;;;;;;;4.30;3.47;;;;;;;;;;5069320;28;20176;-47
2022/07/02 03:44:59;;;;;;;3.73;2.77;;;;;;;;;;5065515;28;20304;-47
2022/07/02 03:47:25;;;;;;;5.43;3.00;;;;;;;;;;5049108;28;21141;-48
2022/07/02 03:49:51;;;;;;;3.80;3.40;;;;;;;;;;5056869;28;20553;-48
2022/07/02 03:52:17;;;;;;;6.87;4.13;;;;;;;;;;5067474;28;20188;-47
2022/07/02 03:54:43;;;;;;;3.67;3.03;;;;;;;;;;5069116;28;20627;-49
2022/07/02 03:57:09;;;;;;;2.90;2.70;;;;;;;;;;5068409;28;20653;-47
2022/07/02 03:59:35;;;;;;;3.37;3.07;;;;;;;;;;5068966;28;20255;-48
2022/07/02 04:02:01;;;;;;;4.63;2.83;;;;;;;;;;5066981;28;20176;-47
2022/07/02 04:04:28;;;;;;;3.30;3.00;;;;;;;;;;5068827;28;20611;-48
2022/07/02 04:06:54;;;;;;;3.53;3.23;;;;;;;;;;5066558;28;20468;-47
2022/07/02 04:09:20;;;;;;;5.13;4.83;;;;;;;;;;5068823;28;20674;-47
2022/07/02 04:11:46;;;;;;;3.87;3.03;;;;;;;;;;5068265;28;20210;-48
2022/07/02 04:14:12;;;;;;;6.23;3.20;;;;;;;;;;5068333;28;20263;-48
2022/07/02 04:16:38;;;;;;;4.93;3.50;;;;;;;;;;5068520;28;20607;-49
2022/07/02 04:19:04;;;;;;;4.47;3.63;;;;;;;;;;5068269;28;20628;-48
2022/07/02 04:21:30;;;;;;;3.97;3.10;;;;;;;;;;5067192;28;20813;-48
2022/07/02 04:23:56;;;;;;;4.03;3.17;;;;;;;;;;5068211;28;20233;-47
2022/07/02 04:26:22;;;;;;;4.83;3.30;;;;;;;;;;5047825;28;20169;-48
2022/07/02 04:28:48;;;;;;;3.60;3.07;;;;;;;;;;5048180;28;20192;-48
2022/07/02 04:31:14;;;;;;;6.57;3.27;;;;;;;;;;5066723;28;20164;-48
2022/07/02 04:33:40;;;;;;;3.73;3.10;;;;;;;;;;5067989;28;20599;-47
2022/07/02 04:36:06;;;;;;;3.70;3.10;;;;;;;;;;5067881;28;20684;-47
2022/07/02 04:38:32;;;;;;;3.73;3.20;;;;;;;;;;5066905;28;20161;-47
2022/07/02 04:40:59;;;;;;;5.53;3.37;;;;;;;;;;5067992;28;20164;-47
2022/07/02 04:43:25;;;;;;;3.50;3.17;;;;;;;;;;5067740;28;20239;-47
2022/07/02 04:45:51;;;;;;;3.37;2.97;;;;;;;;;;5088835;28;20688;-47
2022/07/02 04:48:17;;;;;;;7.00;3.80;;;;;;;;;;5108143;28;20206;-47
2022/07/02 04:50:43;;;;;;;5.20;3.40;;;;;;;;;;5107498;28;20605;-48
2022/07/02 04:53:09;;;;;;;4.73;3.00;;;;;;;;;;5083306;28;20230;-47
2022/07/02 04:55:35;;;;;;;3.50;2.77;;;;;;;;;;5101037;28;20187;-47
2022/07/02 04:58:01;;;;;;;5.13;2.57;;;;;;;;;;5107972;28;20186;-46
2022/07/02 05:00:27;;;;;;;5.10;4.67;;;;;;;;;;5107755;28;20659;-47
2022/07/02 05:02:53;;;;;;;4.67;2.80;;;;;;;;;;5107767;28;20165;-47
2022/07/02 05:05:19;;;;;;;2.90;2.60;;;;;;;;;;5107488;28;20336;-46
2022/07/02 05:07:45;;;;;;;6.43;3.27;;;;;;;;;;5105866;28;20570;-48
2022/07/02 05:10:12;;;;;;;4.10;3.50;;;;;;;;;;5108173;28;20169;-47
2022/07/02 05:12:38;;;;;;;3.90;2.67;;;;;;;;;;5107821;28;20645;-47
2022/07/02 05:15:04;;;;;;;4.30;3.03;;;;;;;;;;5107546;28;20510;-47
2022/07/02 05:17:30;;;;;;;3.10;2.80;;;;;;;;;;5107975;28;20560;-47
2022/07/02 05:19:57;;;;;;;5.57;2.63;;;;;;;;;;5089281;28;20217;-47
2022/07/02 05:22:23;;;;;;;3.87;2.67;;;;;;;;;;5106516;28;20187;-48
2022/07/02 05:24:49;;;;;;;3.40;2.63;;;;;;;;;;5107874;28;20201;-48
2022/07/02 05:27:15;;;;;;;2.93;2.60;;;;;;;;;;5107149;28;20156;-48
2022/07/02 05:29:41;;;;;;;3.53;3.10;;;;;;;;;;5107520;28;20225;-48
2022/07/02 05:32:07;;;;;;;3.00;2.70;;;;;;;;;;5107788;28;20778;-47
2022/07/02 05:34:33;;;;;;;4.87;2.93;;;;;;;;;;5089297;28;20175;-47
2022/07/02 05:36:59;;;;;;;3.20;2.30;;;;;;;;;;5106502;28;20244;-48
2022/07/02 05:39:25;;;;;;;3.00;2.43;;;;;;;;;;5107335;28;20171;-48
2022/07/02 05:41:51;;;;;;;2.53;2.33;;;;;;;;;;5107291;28;20163;-48
2022/07/02 05:44:17;;;;;;;4.13;2.57;;;;;;;;;;5090084;28;20192;-47
2022/07/02 05:46:44;;;;;;;2.63;2.20;;;;;;;;;;5088911;28;20312;-48
2022/07/02 05:49:10;;;;;;;3.33;2.13;;;;;;;;;;5085032;28;20198;-48
2022/07/02 05:51:36;;;;;;;2.90;2.13;;;;;;;;;;5066068;28;20185;-48
2022/07/02 05:54:02;;;;;;;3.03;2.43;;;;;;;;;;5064799;28;20557;-46
2022/07/02 05:56:28;;;;;;;3.37;3.07;;;;;;;;;;5066943;28;20454;-49
2022/07/02 05:58:54;;;;;;;2.43;2.13;;;;;;;;;;5066402;28;20271;-48
2022/07/02 06:01:20;;;;;;;3.37;2.50;;;;;;;;;;5066396;28;20655;-47
2022/07/02 06:03:46;;;;;;;3.07;2.67;;;;;;;;;;5066371;28;20187;-47
2022/07/02 06:08:57;;;;;;;2.80;2.23;;;;;;;;;;5065687;28;20326;-48
2022/07/02 06:11:23;;;;;;;4.73;3.03;;;;;;;;;;5066759;28;20593;-48
2022/07/02 06:13:49;;;;;;;3.10;2.17;;;;;;;;;;5066220;28;20170;-48
2022/07/02 06:16:15;;;;;;;3.07;2.63;;;;;;;;;;5066229;28;20211;-47
2022/07/02 06:18:41;;;;;;;2.37;2.10;;;;;;;;;;5066750;28;20285;-47
2022/07/02 06:21:07;;;;;;;3.00;2.67;;;;;;;;;;5078854;28;20442;-48
2022/07/02 06:23:33;;;;;;;3.63;2.10;;;;;;;;;;5089324;28;20167;-48
2022/07/02 06:25:59;;;;;;;4.13;2.47;;;;;;;;;;5072914;28;20183;-47
2022/07/02 06:28:25;;;;;;;3.43;2.30;;;;;;;;;;5070051;28;20650;-46
2022/07/02 06:30:52;;;;;;;7.00;2.57;;;;;;;;;;5085390;28;20175;-46
2022/07/02 06:33:18;;;;;;;3.23;2.50;;;;;;;;;;5072197;28;20184;-47
2022/07/02 06:35:44;;;;;;;3.93;2.97;;;;;;;;;;5089130;28;20182;-47
2022/07/02 06:38:11;;;;;;;4.10;2.40;;;;;;;;;;5088911;28;20642;-47
2022/07/02 06:40:37;;;;;;;4.93;2.30;;;;;;;;;;5075786;28;20172;-48
2022/07/02 06:43:09;;;;;;;2.77;2.13;;;;;;;;;;5069880;28;20604;-48
2022/07/02 06:45:35;;;;;;;2.40;2.20;;;;;;;;;;5089041;28;20614;-47
2022/07/02 06:48:01;;;;;;;3.63;2.40;;;;;;;;;;5090006;28;20587;-47
2022/07/02 06:50:28;;;;;;;3.00;2.50;;;;;;;;;;5076613;28;20265;-47
2022/07/02 06:52:54;;;;;;;5.00;2.70;;;;;;;;;;5068361;28;20624;-46
2022/07/02 06:55:20;;;;;;;3.17;2.20;;;;;;;;;;5069247;28;20177;-47
2022/07/02 06:57:47;;;;;;;2.43;2.30;;;;;;;;;;5069083;28;20153;-46
2022/07/02 07:00:13;;;;;;;6.30;2.53;;;;;;;;;;5069915;28;20600;-47
2022/07/02 07:02:39;;;;;;;4.47;2.70;;;;;;;;;;5069358;28;20165;-47
2022/07/02 07:05:05;;;;;;;4.33;2.67;;;;;;;;;;5069084;28;20219;-48
2022/07/02 07:07:31;;;;;;;3.60;2.40;;;;;;;;;;5067910;28;20560;-47
2022/07/02 07:09:58;;;;;;;3.63;2.20;;;;;;;;;;5069770;28;20512;-47
2022/07/02 07:12:24;;;;;;;3.57;2.30;;;;;;;;;;5068852;28;20161;-47
2022/07/02 07:14:50;;;;;;;2.40;2.20;;;;;;;;;;5069519;28;20255;-47
2022/07/02 07:17:17;;;;;;;3.30;2.20;;;;;;;;;;5067473;28;20604;-47
2022/07/02 07:19:43;;;;;;;3.37;2.50;;;;;;;;;;5069291;28;20180;-47
2022/07/02 07:22:09;;;;;;;2.80;2.40;;;;;;;;;;5068139;28;20164;-48
2022/07/02 07:24:35;;;;;;;2.80;2.37;;;;;;;;;;5069015;28;20180;-48
2022/07/02 07:27:01;;;;;;;4.70;2.67;;;;;;;;;;5068963;28;20176;-48
2022/07/02 07:29:28;;;;;;;2.80;2.30;;;;;;;;;;5068104;28;20204;-47
2022/07/02 07:31:54;;;;;;;2.73;2.20;;;;;;;;;;5069040;28;20165;-48
2022/07/02 07:34:26;;;;;;;6.83;2.53;;;;;;;;;;5068597;28;20638;-48
2022/07/02 07:36:55;;;;;;;2.93;2.43;;;;;;;;;;5066094;28;20503;-47
2022/07/02 07:39:21;;;;;;;3.77;2.77;;;;;;;;;;5068615;28;20179;-47
2022/07/02 07:41:47;;;;;;;3.03;2.03;;;;;;;;;;5068735;28;20226;-47
2022/07/02 07:44:13;;;;;;;2.07;1.90;;;;;;;;;;5068473;28;20161;-54
2022/07/02 07:46:39;;;;;;;3.63;2.47;;;;;;;;;;5069263;28;20220;-49
2022/07/02 07:49:05;;;;;;;2.27;1.87;;;;;;;;;;5069765;28;20280;-48
2022/07/02 07:51:32;;;;;;;1.90;1.80;;;;;;;;;;5087951;28;20685;-47
2022/07/02 07:53:58;;;;;;;5.13;2.27;;;;;;;;;;5088224;28;20163;-50
2022/07/02 07:56:24;;;;;;;3.07;2.53;;;;;;;;;;5089125;28;20538;-49
2022/07/02 07:58:50;;;;;;;2.30;1.90;;;;;;;;;;5088595;28;20205;-48
2022/07/02 08:01:16;;;;;;;4.00;2.03;;;;;;;;;;5088330;28;20665;-49
2022/07/02 08:03:42;;;;;;;2.40;1.83;;;;;;;;;;5088454;28;20644;-48
2022/07/02 08:06:08;;;;;;;1.70;1.60;;;;;;;;;;5087604;28;20179;-49
2022/07/02 08:08:34;;;;;;;1.93;1.83;;;;;;;;;;5087184;28;20195;-48
2022/07/02 08:11:00;;;;;;;2.33;1.70;;;;;;;;;;5108108;28;20270;-47
2022/07/02 08:13:27;;;;;;;2.77;2.00;;;;;;;;;;5108461;28;20179;-48
2022/07/02 08:15:53;;;;;;;2.63;2.00;;;;;;;;;;5104797;28;20175;-48
2022/07/02 08:18:19;;;;;;;3.57;2.13;;;;;;;;;;5089897;28;20175;-48
2022/07/02 08:20:45;;;;;;;2.13;1.93;;;;;;;;;;5093630;28;20708;-48
2022/07/02 08:23:11;;;;;;;2.00;1.80;;;;;;;;;;5086786;28;20536;-48
2022/07/02 08:25:37;;;;;;;2.50;2.30;;;;;;;;;;5087529;28;20176;-48
2022/07/02 08:28:04;;;;;;;3.47;2.20;;;;;;;;;;5088070;28;20188;-48
2022/07/02 08:30:30;;;;;;;3.30;1.80;;;;;;;;;;5087376;28;20258;-48
2022/07/02 08:32:56;;;;;;;4.20;1.93;;;;;;;;;;5088147;28;20221;-49
2022/07/02 08:35:22;;;;;;;5.10;2.87;;;;;;;;;;5087840;28;20562;-48
2022/07/02 08:37:48;;;;;;;5.17;1.87;;;;;;;;;;5086978;28;20180;-47
2022/07/02 08:40:14;;;;;;;2.73;2.27;;;;;;;;;;5087873;28;20207;-48
2022/07/02 08:42:41;;;;;;;1.97;1.73;;;;;;;;;;5080257;28;20328;-48
2022/07/02 08:45:08;;;;;;;2.17;1.97;;;;;;;;;;5084265;28;20174;-47
2022/07/02 08:47:35;;;;;;;1.93;1.57;;;;;;;;;;5089371;28;20660;-47
2022/07/02 08:50:02;;;;;;;2.20;2.00;;;;;;;;;;5107642;28;20643;-48
2022/07/02 08:52:28;;;;;;;3.03;1.87;;;;;;;;;;5088920;28;20176;-47
2022/07/02 08:54:56;;;;;;;2.60;1.60;;;;;;;;;;5107719;28;20186;-47
2022/07/02 08:57:22;;;;;;;3.27;1.93;;;;;;;;;;5108058;28;20159;-48
2022/07/02 08:59:48;;;;;;;1.80;1.70;;;;;;;;;;5107027;28;20178;-48
2022/07/02 09:02:15;;;;;;;1.90;1.70;;;;;;;;;;5107521;28;20225;-47
2022/07/02 09:04:45;;;;;;;1.80;1.70;;;;;;;;;;5106657;28;20183;-47
2022/07/02 09:07:12;;;;;;;1.90;1.80;;;;;;;;;;5106994;28;20155;-48
2022/07/02 09:09:41;;;;;;;1.53;1.43;;;;;;;;;;5107782;28;20661;-49
2022/07/02 09:12:09;;;;;;;1.50;1.40;;;;;;;;;;5107671;28;20246;-48
2022/07/02 09:14:35;;;;;;;4.10;1.43;;;;;;;;;;5105238;28;20171;-47
2022/07/02 09:17:02;;;;;;;1.87;1.50;;;;;;;;;;5107232;28;20651;-48
2022/07/02 09:19:28;;;;;;;3.20;2.10;;;;;;;;;;5107341;28;20741;-48
2022/07/02 09:21:54;;;;;;;3.43;1.93;;;;;;;;;;5106515;28;20240;-48
2022/07/02 09:24:34;;;;;;;1.70;1.60;;;;;;;;;;5107119;28;20530;-48
2022/07/02 09:27:04;;;;;;;1.77;1.60;;;;;;;;;;5106851;28;20164;-47
2022/07/02 09:29:40;;;;;;;2.97;1.60;;;;;;;;;;5106830;28;20187;-47
2022/07/02 09:32:07;;;;;;;2.87;1.67;;;;;;;;;;5107725;28;20681;-48
2022/07/02 09:34:33;;;;;;;1.77;1.67;;;;;;;;;;5106705;28;20529;-48
2022/07/02 09:36:59;;;;;;;2.03;1.60;;;;;;;;;;5106249;28;20532;-47
2022/07/02 09:39:29;;;;;;;1.73;1.60;;;;;;;;;;5106700;28;20619;-47
2022/07/02 09:41:55;;;;;;;1.53;1.43;;;;;;;;;;5107581;28;20167;-48
2022/07/02 09:44:21;;;;;;;1.70;1.60;;;;;;;;;;5107140;28;20210;-48
2022/07/02 09:46:47;;;;;;;2.73;1.50;;;;;;;;;;5105146;28;20228;-49
2022/07/02 09:49:15;;;;;;;4.13;1.67;;;;;;;;;;5106191;28;20258;-49
2022/07/02 09:51:51;;;;;;;2.07;1.80;;;;;;;;;;5106006;28;20207;-47
2022/07/02 09:54:18;;;;;;;3.00;2.00;;;;;;;;;;5094696;28;20196;-48
2022/07/02 09:56:58;;;;;;;4.97;1.60;;;;;;;;;;5106860;28;20219;-48
2022/07/02 09:59:25;;;;;;;1.43;1.33;;;;;;;;;;5106248;28;20193;-49
2022/07/02 10:01:51;;;;;;;2.10;1.70;;;;;;;;;;5106865;28;20183;-48
2022/07/02 10:04:27;;;;;;;1.50;1.40;;;;;;;;;;5106474;28;20184;-48
2022/07/02 10:06:53;;;;;;;2.37;1.80;;;;;;;;;;5105408;28;20205;-59
2022/07/02 10:09:21;;;;;;;1.73;1.63;;;;;;;;;;5103283;28;20231;-49
2022/07/02 10:11:47;;;;;;;1.87;1.77;;;;;;;;;;5086740;28;20168;-49
2022/07/02 10:14:15;;;;;;;1.73;1.60;;;;;;;;;;5088775;28;20164;-49
2022/07/02 10:16:42;;;;;;;2.33;1.53;;;;;;;;;;5106858;28;20238;-48
2022/07/02 10:19:08;;;;;;;3.07;1.90;;;;;;;;;;5105180;28;20207;-50
2022/07/02 10:21:35;;;;;;;2.10;1.50;;;;;;;;;;5086229;28;20195;-47
2022/07/02 10:24:02;;;;;;;3.83;1.60;;;;;;;;;;5086244;28;20571;-48
2022/07/02 10:26:28;;;;;;;1.80;1.70;;;;;;;;;;5086620;28;20186;-49
2022/07/02 10:28:54;;;;;;;2.60;1.87;;;;;;;;;;5086467;28;20195;-50
2022/07/02 10:31:20;;;;;;;1.60;1.47;;;;;;;;;;5067943;28;20160;-49
2022/07/02 10:34:05;;;;;;;2.23;1.70;;;;;;;;;;5086516;28;20179;-47
2022/07/02 10:36:32;;;;;;;5.43;1.60;;;;;;;;;;5064617;28;20579;-46
2022/07/02 10:38:59;;;;;;;2.67;1.33;;;;;;;;;;5065461;28;20169;-47
2022/07/02 10:41:29;;;;;;;2.83;1.87;;;;;;;;;;5106914;28;20201;-50
2022/07/02 10:43:59;;;;;;;4.17;1.70;;;;;;;;;;5088782;28;20172;-50
2022/07/02 10:46:26;;;;;;;2.30;1.50;;;;;;;;;;5063875;28;20570;-49
2022/07/02 10:48:57;;;;;;;1.93;1.73;;;;;;;;;;5047742;28;20509;-47
2022/07/02 10:51:27;;;;;;;7.50;2.40;;;;;;;;;;5066139;28;20200;-49
2022/07/02 10:53:57;;;;;;;12.40;2.40;;;;;;;;;;5065562;28;20173;-49
2022/07/02 10:56:24;;;;;;;2.27;2.03;;;;;;;;;;5045765;28;20166;-47
2022/07/02 10:58:50;;;;;;;4.53;1.60;;;;;;;;;;5037982;28;20161;-49
2022/07/02 11:01:17;;;;;;;6.83;1.70;;;;;;;;;;5064704;28;20170;-58
2022/07/02 11:04:03;;;;;;;3.53;1.67;;;;;;;;;;5065609;28;20565;-50
2022/07/02 11:06:30;;;;;;;2.37;2.03;;;;;;;;;;5048193;28;20248;-51
2022/07/02 11:08:59;;;;;;;3.80;1.67;;;;;;;;;;5049024;28;20188;-51
2022/07/02 11:11:29;;;;;;;4.23;3.13;;;;;;;;;;5049583;28;20169;-48
2022/07/02 11:13:56;;;;;;;2.60;1.60;;;;;;;;;;5050854;28;20188;-54
2022/07/02 11:16:25;;;;;;;1.97;1.60;;;;;;;;;;5069720;28;20259;-48
2022/07/02 11:18:52;;;;;;;2.33;1.90;;;;;;;;;;5069568;28;20169;-46
2022/07/02 11:21:19;;;;;;;2.27;1.87;;;;;;;;;;5068857;28;20700;-47
2022/07/02 11:23:45;;;;;;;2.03;1.83;;;;;;;;;;5068880;28;20170;-49
2022/07/02 11:26:15;;;;;;;2.37;1.90;;;;;;;;;;5069181;28;20572;-49
2022/07/02 11:28:43;;;;;;;2.20;2.00;;;;;;;;;;5069646;28;20224;-47
2022/07/02 11:31:16;;;;;;;1.80;1.70;;;;;;;;;;5068985;28;20589;-49
2022/07/02 11:33:49;;;;;;;1.90;1.80;;;;;;;;;;5069130;28;20161;-48
2022/07/02 11:36:15;;;;;;;1.57;1.47;;;;;;;;;;5067825;28;20177;-49
2022/07/02 11:38:43;;;;;;;2.10;1.90;;;;;;;;;;5067711;28;20168;-46
2022/07/02 11:41:29;;;;;;;2.60;1.77;;;;;;;;;;5068692;28;20203;-47
2022/07/02 11:43:58;;;;;;;2.20;1.60;;;;;;;;;;5068547;28;20260;-49
2022/07/02 11:46:25;;;;;;;1.50;1.40;;;;;;;;;;5077260;28;20590;-47
2022/07/02 11:48:52;;;;;;;2.00;1.83;;;;;;;;;;5081220;28;20295;-46
2022/07/02 11:51:19;;;;;;;1.70;1.57;;;;;;;;;;5099720;28;20609;-48
2022/07/02 11:53:55;;;;;;;2.10;2.00;;;;;;;;;;5108752;28;20202;-48
2022/07/02 11:56:22;;;;;;;3.47;1.70;;;;;;;;;;5105121;28;20250;-47
2022/07/02 11:58:48;;;;;;;1.70;1.60;;;;;;;;;;5108828;28;20605;-46
2022/07/02 12:01:28;;;;;;;4.30;4.03;;;;;;;;;;5107763;28;20640;-48
2022/07/02 12:03:55;;;;;;;1.87;1.43;;;;;;;;;;5108930;28;20552;-48
2022/07/02 12:06:22;;;;;;;1.80;1.70;;;;;;;;;;5066416;28;20216;-48
2022/07/02 12:08:51;;;;;;;1.93;1.83;;;;;;;;;;5086866;28;20188;-49
2022/07/02 12:11:18;;;;;;;2.00;1.80;;;;;;;;;;5088454;28;20544;-48
2022/07/02 12:13:45;;;;;;;1.80;1.70;;;;;;;;;;5087962;28;20194;-52
2022/07/02 12:16:13;;;;;;;2.93;1.87;;;;;;;;;;5086235;28;20594;-48
2022/07/02 12:18:40;;;;;;;1.73;1.63;;;;;;;;;;5088535;28;20160;-48
2022/07/02 12:21:10;;;;;;;2.77;2.57;;;;;;;;;;5083419;28;20582;-48
2022/07/02 12:24:02;;;;;;;2.30;1.70;;;;;;;;;;5066773;28;20174;-47
2022/07/02 12:26:29;;;;;;;10.03;1.70;;;;;;;;;;5051540;28;20194;-47
2022/07/02 12:31:48;;;;;;;1.90;1.80;;;;;;;;;;5067941;28;20471;-61
2022/07/02 12:34:15;;;;;;;1.60;1.50;;;;;;;;;;5071223;28;20159;-48
2022/07/02 12:36:49;;;;;;;1.50;1.40;;;;;;;;;;5087374;28;20185;-49
2022/07/02 12:39:15;;;;;;;1.43;1.30;;;;;;;;;;5087800;28;20895;-48
2022/07/02 12:41:42;;;;;;;2.03;1.63;;;;;;;;;;5088450;28;20246;-49
2022/07/02 12:44:15;;;;;;;2.90;1.83;;;;;;;;;;5087623;28;20212;-48
2022/07/02 12:46:46;;;;;;;3.00;1.80;;;;;;;;;;5096551;28;20236;-48
2022/07/02 12:49:16;;;;;;;1.73;1.60;;;;;;;;;;5107903;28;20579;-47
2022/07/02 12:51:53;;;;;;;2.10;1.90;;;;;;;;;;5106968;28;20661;-48
2022/07/02 12:54:19;;;;;;;2.90;1.60;;;;;;;;;;5107252;28;20615;-47
2022/07/02 12:56:45;;;;;;;1.80;1.70;;;;;;;;;;5107632;28;20170;-48
2022/07/02 12:59:11;;;;;;;2.83;1.70;;;;;;;;;;5107779;28;20227;-49
2022/07/02 13:01:37;;;;;;;3.43;1.80;;;;;;;;;;5108380;28;20177;-48
2022/07/02 13:04:04;;;;;;;1.97;1.83;;;;;;;;;;5108259;28;20630;-49
2022/07/02 13:06:30;;;;;;;2.17;2.00;;;;;;;;;;5107820;28;20209;-48
2022/07/02 13:08:56;;;;;;;2.27;2.07;;;;;;;;;;5107108;28;20205;-49
2022/07/02 13:11:23;;;;;;;2.40;2.30;;;;;;;;;;5093985;28;20194;-50
2022/07/02 13:13:56;;;;;;;2.40;2.20;;;;;;;;;;5087507;28;20177;-50
2022/07/02 13:16:22;;;;;;;1.90;1.60;;;;;;;;;;5107572;28;20615;-49
2022/07/02 13:18:48;;;;;;;1.97;1.87;;;;;;;;;;5088506;28;20632;-48
2022/07/02 13:21:14;;;;;;;2.53;1.87;;;;;;;;;;5106832;28;20541;-49
2022/07/02 13:23:41;;;;;;;2.10;1.93;;;;;;;;;;5106974;28;20178;-50
2022/07/02 13:26:07;;;;;;;2.10;1.70;;;;;;;;;;5107591;28;20176;-62
2022/07/02 13:28:33;;;;;;;2.10;1.70;;;;;;;;;;5106295;28;20201;-50
2022/07/02 13:30:59;;;;;;;1.77;1.67;;;;;;;;;;5108143;28;20190;-48
2022/07/02 13:33:25;;;;;;;3.28;1.90;;;;;;;;;;5107114;28;20516;-49
2022/07/02 13:35:51;;;;;;;2.07;1.87;;;;;;;;;;5106944;28;20251;-48
2022/07/02 13:38:17;;;;;;;1.80;1.70;;;;;;;;;;5105977;28;20167;-49
2022/07/02 13:40:43;;;;;;;1.90;1.65;;;;;;;;;;5105601;28;20421;-49
2022/07/02 13:43:12;;;;;;;1.83;1.70;;;;;;;;;;5106679;28;20161;-49
2022/07/02 13:45:38;;;;;;;3.42;1.55;;;;;;;;;;5104805;28;20182;-49
2022/07/02 13:48:04;;;;;;;2.30;1.88;;;;;;;;;;5106953;28;20284;-48
2022/07/02 13:50:31;;;;;;;2.25;1.98;;;;;;;;;;5107452;28;20650;-49
2022/07/02 13:52:57;;;;;;;2.70;1.83;;;;;;;;;;5106278;28;20649;-49
2022/07/02 13:55:23;;;;;;;2.73;1.93;;;;;;;;;;5107328;28;20175;-49
2022/07/02 13:57:49;;;;;;;3.37;2.13;;;;;;;;;;5107011;28;20610;-49
2022/07/02 14:00:15;;;;;;;3.17;2.97;;;;;;;;;;5107303;28;20184;-49
2022/07/02 14:02:42;;;;;;;3.67;1.70;;;;;;;;;;5088410;28;20184;-49
2022/07/02 14:05:08;;;;;;;2.08;1.67;;;;;;;;;;5107708;28;20168;-49
2022/07/02 14:07:34;;;;;;;1.80;1.70;;;;;;;;;;5105832;28;20171;-51
2022/07/02 14:10:00;;;;;;;3.17;1.60;;;;;;;;;;5106659;28;20183;-49
2022/07/02 14:12:27;;;;;;;4.10;1.93;;;;;;;;;;5107169;28;20155;-48
2022/07/02 14:14:53;;;;;;;1.70;1.60;;;;;;;;;;5104551;28;20247;-48
2022/07/02 14:17:19;;;;;;;1.73;1.63;;;;;;;;;;5107096;28;20159;-50
2022/07/02 14:19:45;;;;;;;1.90;1.80;;;;;;;;;;5107109;28;20663;-49
2022/07/02 14:22:14;;;;;;;3.73;3.53;;;;;;;;;;5106015;28;20251;-49
2022/07/02 14:24:41;;;;;;;3.23;2.13;;;;;;;;;;5107257;28;20183;-48
2022/07/02 14:27:07;;;;;;;2.03;1.80;;;;;;;;;;5107128;28;20521;-48
2022/07/02 14:29:33;;;;;;;2.70;1.48;;;;;;;;;;5106754;28;20510;-47
2022/07/02 14:31:59;;;;;;;1.60;1.50;;;;;;;;;;5106795;28;20164;-49
2022/07/02 14:34:25;;;;;;;1.80;1.70;;;;;;;;;;5107115;28;20280;-49
2022/07/02 14:36:59;;;;;;;2.30;2.20;;;;;;;;;;5105510;28;20223;-47
2022/07/02 14:39:25;;;;;;;2.03;1.67;;;;;;;;;;5106554;28;20183;-47
2022/07/02 14:41:51;;;;;;;3.33;1.83;;;;;;;;;;5111202;28;20571;-47
2022/07/02 14:44:18;;;;;;;2.03;1.63;;;;;;;;;;5110976;28;20644;-47
2022/07/02 14:46:56;;;;;;;1.67;1.53;;;;;;;;;;5108373;28;20244;-49
2022/07/02 14:49:22;;;;;;;1.97;1.67;;;;;;;;;;5110969;28;20673;-49
2022/07/02 14:51:48;;;;;;;1.70;1.60;;;;;;;;;;5109391;28;20748;-49